sensor_id;sensor_type;location;lat;lon;timestamp;P1;durP1;ratioP1;P2;durP2;ratioP2
23163;SDS011;31429;42.674;23.350;2023-09-30T00:00:35;15.27;;;8.97;;
23163;SDS011;31429;42.674;23.350;2023-09-30T00:01:36;14.43;;;9.40;;
23163;SDS011;31429;42.674;23.350;2023-09-30T00:02:38;17.20;;;9.67;;
23163;SDS011;31429;42.674;23.350;2023-09-30T00:03:44;15.67;;;9.10;;
23163;SDS011;31429;42.674;23.350;2023-09-30T00:04:45;15.73;;;10.13;;
23163;SDS011;31429;42.674;23.350;2023-09-30T00:05:51;14.03;;;9.57;;
23163;SDS011;31429;42.674;23.350;2023-09-30T00:06:55;13.47;;;9.60;;
23163;SDS011;31429;42.674;23.350;2023-09-30T00:07:56;19.30;;;9.10;;
23163;SDS011;31429;42.674;23.350;2023-09-30T00:08:57;17.73;;;9.30;;
23163;SDS011;31429;42.674;23.350;2023-09-30T00:09:57;19.53;;;10.63;;
23163;SDS011;31429;42.674;23.350;2023-09-30T00:10:59;17.07;;;9.30;;
23163;SDS011;31429;42.674;23.350;2023-09-30T00:11:59;17.97;;;9.77;;
23163;SDS011;31429;42.674;23.350;2023-09-30T00:13:00;13.80;;;9.13;;
23163;SDS011;31429;42.674;23.350;2023-09-30T00:14:01;14.37;;;9.43;;
23163;SDS011;31429;42.674;23.350;2023-09-30T00:15:02;18.33;;;9.23;;
23163;SDS011;31429;42.674;23.350;2023-09-30T00:16:05;19.60;;;10.27;;
23163;SDS011;31429;42.674;23.350;2023-09-30T00:17:06;13.97;;;9.73;;
23163;SDS011;31429;42.674;23.350;2023-09-30T00:18:07;14.33;;;10.17;;
23163;SDS011;31429;42.674;23.350;2023-09-30T00:19:08;14.87;;;9.67;;
23163;SDS011;31429;42.674;23.350;2023-09-30T00:20:10;15.60;;;10.00;;
23163;SDS011;31429;42.674;23.350;2023-09-30T00:21:13;20.20;;;10.63;;
23163;SDS011;31429;42.674;23.350;2023-09-30T00:22:33;20.07;;;10.13;;
23163;SDS011;31429;42.674;23.350;2023-09-30T00:23:34;17.37;;;10.33;;
23163;SDS011;31429;42.674;23.350;2023-09-30T00:24:40;18.13;;;10.73;;
23163;SDS011;31429;42.674;23.350;2023-09-30T00:25:41;18.60;;;10.00;;
23163;SDS011;31429;42.674;23.350;2023-09-30T00:44:14;17.17;;;10.73;;
23163;SDS011;31429;42.674;23.350;2023-09-30T00:45:16;14.27;;;10.10;;
23163;SDS011;31429;42.674;23.350;2023-09-30T00:46:18;17.03;;;10.20;;
23163;SDS011;31429;42.674;23.350;2023-09-30T02:55:44;17.33;;;11.80;;
23163;SDS011;31429;42.674;23.350;2023-09-30T02:56:45;22.50;;;11.47;;
23163;SDS011;31429;42.674;23.350;2023-09-30T02:57:46;18.87;;;11.80;;
23163;SDS011;31429;42.674;23.350;2023-09-30T02:58:47;20.17;;;11.43;;
23163;SDS011;31429;42.674;23.350;2023-09-30T02:59:48;18.77;;;11.77;;
23163;SDS011;31429;42.674;23.350;2023-09-30T03:00:50;14.50;;;11.10;;
23163;SDS011;31429;42.674;23.350;2023-09-30T03:01:51;20.13;;;12.40;;
23163;SDS011;31429;42.674;23.350;2023-09-30T03:02:52;15.50;;;11.50;;
23163;SDS011;31429;42.674;23.350;2023-09-30T03:03:53;14.60;;;11.33;;
23163;SDS011;31429;42.674;23.350;2023-09-30T03:05:00;17.33;;;11.70;;
23163;SDS011;31429;42.674;23.350;2023-09-30T03:06:04;16.60;;;11.37;;
23163;SDS011;31429;42.674;23.350;2023-09-30T03:07:06;15.67;;;12.20;;
23163;SDS011;31429;42.674;23.350;2023-09-30T03:08:07;18.73;;;11.63;;
23163;SDS011;31429;42.674;23.350;2023-09-30T03:09:08;19.80;;;12.27;;
23163;SDS011;31429;42.674;23.350;2023-09-30T03:10:09;20.13;;;11.60;;
23163;SDS011;31429;42.674;23.350;2023-09-30T03:11:17;17.77;;;11.23;;
23163;SDS011;31429;42.674;23.350;2023-09-30T03:12:20;17.33;;;11.60;;
23163;SDS011;31429;42.674;23.350;2023-09-30T03:13:20;15.83;;;11.37;;
23163;SDS011;31429;42.674;23.350;2023-09-30T03:14:41;21.23;;;12.13;;
23163;SDS011;31429;42.674;23.350;2023-09-30T03:16:01;20.20;;;11.93;;
23163;SDS011;31429;42.674;23.350;2023-09-30T03:17:02;24.40;;;12.43;;
23163;SDS011;31429;42.674;23.350;2023-09-30T03:18:03;19.53;;;11.33;;
23163;SDS011;31429;42.674;23.350;2023-09-30T03:19:05;17.00;;;11.67;;
23163;SDS011;31429;42.674;23.350;2023-09-30T03:20:06;16.63;;;10.77;;
23163;SDS011;31429;42.674;23.350;2023-09-30T03:21:27;14.70;;;11.33;;
23163;SDS011;31429;42.674;23.350;2023-09-30T03:22:28;17.80;;;11.63;;
23163;SDS011;31429;42.674;23.350;2023-09-30T03:23:28;18.50;;;11.87;;
23163;SDS011;31429;42.674;23.350;2023-09-30T03:24:30;16.63;;;10.87;;
23163;SDS011;31429;42.674;23.350;2023-09-30T03:25:51;14.63;;;10.50;;
23163;SDS011;31429;42.674;23.350;2023-09-30T03:26:53;17.27;;;11.07;;
23163;SDS011;31429;42.674;23.350;2023-09-30T03:27:54;17.70;;;10.90;;
23163;SDS011;31429;42.674;23.350;2023-09-30T03:28:54;18.73;;;10.70;;
23163;SDS011;31429;42.674;23.350;2023-09-30T03:29:55;18.90;;;11.90;;
23163;SDS011;31429;42.674;23.350;2023-09-30T03:30:55;15.47;;;11.03;;
23163;SDS011;31429;42.674;23.350;2023-09-30T03:31:56;13.80;;;10.67;;
23163;SDS011;31429;42.674;23.350;2023-09-30T03:32:57;17.73;;;11.17;;
23163;SDS011;31429;42.674;23.350;2023-09-30T03:33:57;22.03;;;11.00;;
23163;SDS011;31429;42.674;23.350;2023-09-30T03:34:58;19.17;;;10.43;;
23163;SDS011;31429;42.674;23.350;2023-09-30T03:36:00;17.93;;;11.40;;
23163;SDS011;31429;42.674;23.350;2023-09-30T03:37:03;13.50;;;9.97;;
23163;SDS011;31429;42.674;23.350;2023-09-30T03:38:07;16.90;;;10.57;;
23163;SDS011;31429;42.674;23.350;2023-09-30T03:39:28;20.70;;;11.27;;
23163;SDS011;31429;42.674;23.350;2023-09-30T03:40:28;15.97;;;11.00;;
23163;SDS011;31429;42.674;23.350;2023-09-30T03:41:49;20.93;;;11.20;;
23163;SDS011;31429;42.674;23.350;2023-09-30T03:42:51;20.27;;;12.00;;
23163;SDS011;31429;42.674;23.350;2023-09-30T03:43:51;15.73;;;10.70;;
23163;SDS011;31429;42.674;23.350;2023-09-30T03:44:52;17.37;;;10.70;;
23163;SDS011;31429;42.674;23.350;2023-09-30T03:46:12;14.43;;;10.60;;
23163;SDS011;31429;42.674;23.350;2023-09-30T03:47:13;15.43;;;10.17;;
23163;SDS011;31429;42.674;23.350;2023-09-30T03:48:34;19.83;;;10.70;;
23163;SDS011;31429;42.674;23.350;2023-09-30T03:49:39;14.23;;;10.30;;
23163;SDS011;31429;42.674;23.350;2023-09-30T03:50:40;15.67;;;10.20;;
23163;SDS011;31429;42.674;23.350;2023-09-30T03:51:40;19.03;;;10.50;;
23163;SDS011;31429;42.674;23.350;2023-09-30T03:52:41;16.00;;;9.93;;
23163;SDS011;31429;42.674;23.350;2023-09-30T03:54:03;15.67;;;11.13;;
23163;SDS011;31429;42.674;23.350;2023-09-30T03:55:04;15.80;;;10.90;;
23163;SDS011;31429;42.674;23.350;2023-09-30T03:56:05;23.40;;;10.83;;
23163;SDS011;31429;42.674;23.350;2023-09-30T03:57:26;15.97;;;10.50;;
23163;SDS011;31429;42.674;23.350;2023-09-30T03:58:29;16.57;;;10.67;;
23163;SDS011;31429;42.674;23.350;2023-09-30T03:59:30;18.27;;;10.23;;
23163;SDS011;31429;42.674;23.350;2023-09-30T04:00:30;17.70;;;11.10;;
23163;SDS011;31429;42.674;23.350;2023-09-30T04:01:31;17.60;;;10.37;;
23163;SDS011;31429;42.674;23.350;2023-09-30T04:02:31;14.30;;;10.97;;
23163;SDS011;31429;42.674;23.350;2023-09-30T04:03:32;17.60;;;10.73;;
23163;SDS011;31429;42.674;23.350;2023-09-30T04:04:53;15.23;;;9.67;;
23163;SDS011;31429;42.674;23.350;2023-09-30T04:06:13;16.53;;;10.63;;
23163;SDS011;31429;42.674;23.350;2023-09-30T04:07:14;15.83;;;10.27;;
23163;SDS011;31429;42.674;23.350;2023-09-30T04:08:15;14.53;;;10.23;;
23163;SDS011;31429;42.674;23.350;2023-09-30T04:09:15;18.80;;;11.37;;
23163;SDS011;31429;42.674;23.350;2023-09-30T04:10:16;13.97;;;10.80;;
23163;SDS011;31429;42.674;23.350;2023-09-30T04:11:17;16.30;;;10.00;;
23163;SDS011;31429;42.674;23.350;2023-09-30T04:12:19;13.53;;;10.33;;
23163;SDS011;31429;42.674;23.350;2023-09-30T04:13:20;18.07;;;10.27;;
23163;SDS011;31429;42.674;23.350;2023-09-30T04:14:42;15.23;;;9.80;;
23163;SDS011;31429;42.674;23.350;2023-09-30T04:15:42;14.80;;;9.97;;
23163;SDS011;31429;42.674;23.350;2023-09-30T04:16:44;16.00;;;10.87;;
23163;SDS011;31429;42.674;23.350;2023-09-30T04:17:45;18.17;;;10.63;;
23163;SDS011;31429;42.674;23.350;2023-09-30T04:18:46;20.87;;;10.80;;
23163;SDS011;31429;42.674;23.350;2023-09-30T04:19:46;19.10;;;10.97;;
23163;SDS011;31429;42.674;23.350;2023-09-30T04:20:51;12.53;;;10.43;;
23163;SDS011;31429;42.674;23.350;2023-09-30T04:21:51;16.60;;;11.00;;
23163;SDS011;31429;42.674;23.350;2023-09-30T04:22:52;21.27;;;11.57;;
23163;SDS011;31429;42.674;23.350;2023-09-30T04:24:13;19.07;;;10.90;;
23163;SDS011;31429;42.674;23.350;2023-09-30T04:25:13;19.87;;;10.90;;
23163;SDS011;31429;42.674;23.350;2023-09-30T04:26:34;16.63;;;10.87;;
23163;SDS011;31429;42.674;23.350;2023-09-30T04:27:35;16.13;;;10.97;;
23163;SDS011;31429;42.674;23.350;2023-09-30T04:28:56;19.37;;;11.10;;
23163;SDS011;31429;42.674;23.350;2023-09-30T04:29:57;17.30;;;11.40;;
23163;SDS011;31429;42.674;23.350;2023-09-30T04:30:58;18.53;;;10.97;;
23163;SDS011;31429;42.674;23.350;2023-09-30T04:31:59;14.63;;;11.00;;
23163;SDS011;31429;42.674;23.350;2023-09-30T04:33:00;15.50;;;10.73;;
23163;SDS011;31429;42.674;23.350;2023-09-30T04:34:20;22.73;;;11.13;;
23163;SDS011;31429;42.674;23.350;2023-09-30T04:35:41;13.77;;;11.47;;
23163;SDS011;31429;42.674;23.350;2023-09-30T04:36:41;26.23;;;12.60;;
23163;SDS011;31429;42.674;23.350;2023-09-30T04:37:42;18.07;;;11.67;;
23163;SDS011;31429;42.674;23.350;2023-09-30T04:38:43;21.17;;;11.93;;
23163;SDS011;31429;42.674;23.350;2023-09-30T04:39:44;14.87;;;10.97;;
23163;SDS011;31429;42.674;23.350;2023-09-30T04:41:23;15.23;;;11.10;;
23163;SDS011;31429;42.674;23.350;2023-09-30T04:42:25;16.57;;;11.33;;
23163;SDS011;31429;42.674;23.350;2023-09-30T04:43:26;19.83;;;11.90;;
23163;SDS011;31429;42.674;23.350;2023-09-30T04:44:29;19.27;;;12.70;;
23163;SDS011;31429;42.674;23.350;2023-09-30T04:45:51;19.93;;;12.03;;
23163;SDS011;31429;42.674;23.350;2023-09-30T04:46:53;18.10;;;11.93;;
23163;SDS011;31429;42.674;23.350;2023-09-30T04:47:56;19.13;;;11.70;;
23163;SDS011;31429;42.674;23.350;2023-09-30T04:48:57;18.73;;;11.10;;
23163;SDS011;31429;42.674;23.350;2023-09-30T04:49:57;16.23;;;11.40;;
23163;SDS011;31429;42.674;23.350;2023-09-30T04:50:58;15.10;;;11.13;;
23163;SDS011;31429;42.674;23.350;2023-09-30T04:51:59;15.33;;;11.67;;
23163;SDS011;31429;42.674;23.350;2023-09-30T04:53:00;17.20;;;11.07;;
23163;SDS011;31429;42.674;23.350;2023-09-30T04:54:20;17.43;;;11.83;;
23163;SDS011;31429;42.674;23.350;2023-09-30T04:55:22;13.63;;;10.83;;
23163;SDS011;31429;42.674;23.350;2023-09-30T04:56:23;18.77;;;11.47;;
23163;SDS011;31429;42.674;23.350;2023-09-30T04:57:24;18.03;;;11.13;;
23163;SDS011;31429;42.674;23.350;2023-09-30T04:58:24;18.00;;;11.33;;
23163;SDS011;31429;42.674;23.350;2023-09-30T04:59:25;14.13;;;10.53;;
23163;SDS011;31429;42.674;23.350;2023-09-30T05:00:25;18.20;;;11.00;;
23163;SDS011;31429;42.674;23.350;2023-09-30T05:01:47;17.97;;;11.80;;
23163;SDS011;31429;42.674;23.350;2023-09-30T05:03:08;18.13;;;11.80;;
23163;SDS011;31429;42.674;23.350;2023-09-30T05:04:08;19.20;;;11.20;;
23163;SDS011;31429;42.674;23.350;2023-09-30T05:05:09;15.60;;;11.13;;
23163;SDS011;31429;42.674;23.350;2023-09-30T05:06:09;16.53;;;11.20;;
23163;SDS011;31429;42.674;23.350;2023-09-30T05:07:10;15.90;;;11.17;;
23163;SDS011;31429;42.674;23.350;2023-09-30T05:08:31;19.63;;;11.70;;
23163;SDS011;31429;42.674;23.350;2023-09-30T05:09:31;16.33;;;11.87;;
23163;SDS011;31429;42.674;23.350;2023-09-30T05:10:32;21.10;;;12.13;;
23163;SDS011;31429;42.674;23.350;2023-09-30T05:11:52;18.13;;;11.50;;
23163;SDS011;31429;42.674;23.350;2023-09-30T05:12:53;15.47;;;11.37;;
23163;SDS011;31429;42.674;23.350;2023-09-30T05:14:14;16.63;;;11.00;;
23163;SDS011;31429;42.674;23.350;2023-09-30T05:15:16;19.37;;;11.17;;
23163;SDS011;31429;42.674;23.350;2023-09-30T05:16:17;15.73;;;10.90;;
23163;SDS011;31429;42.674;23.350;2023-09-30T05:17:21;17.23;;;11.03;;
23163;SDS011;31429;42.674;23.350;2023-09-30T05:18:22;23.17;;;10.60;;
23163;SDS011;31429;42.674;23.350;2023-09-30T05:19:24;16.90;;;10.97;;
23163;SDS011;31429;42.674;23.350;2023-09-30T05:20:24;21.30;;;11.60;;
23163;SDS011;31429;42.674;23.350;2023-09-30T05:21:25;12.90;;;11.50;;
23163;SDS011;31429;42.674;23.350;2023-09-30T05:22:45;18.57;;;11.20;;
23163;SDS011;31429;42.674;23.350;2023-09-30T05:23:46;16.17;;;10.27;;
23163;SDS011;31429;42.674;23.350;2023-09-30T05:24:47;16.97;;;10.23;;
23163;SDS011;31429;42.674;23.350;2023-09-30T05:25:47;19.23;;;10.40;;
23163;SDS011;31429;42.674;23.350;2023-09-30T05:26:48;20.97;;;10.70;;
23163;SDS011;31429;42.674;23.350;2023-09-30T05:27:49;17.77;;;10.47;;
23163;SDS011;31429;42.674;23.350;2023-09-30T05:28:49;13.93;;;10.63;;
23163;SDS011;31429;42.674;23.350;2023-09-30T05:30:10;16.33;;;10.77;;
23163;SDS011;31429;42.674;23.350;2023-09-30T05:31:11;18.90;;;10.37;;
23163;SDS011;31429;42.674;23.350;2023-09-30T05:32:12;17.63;;;10.37;;
23163;SDS011;31429;42.674;23.350;2023-09-30T05:33:33;15.53;;;10.63;;
23163;SDS011;31429;42.674;23.350;2023-09-30T05:34:36;13.63;;;10.60;;
23163;SDS011;31429;42.674;23.350;2023-09-30T05:35:56;14.30;;;9.77;;
23163;SDS011;31429;42.674;23.350;2023-09-30T05:36:57;14.73;;;10.60;;
23163;SDS011;31429;42.674;23.350;2023-09-30T05:38:17;12.77;;;10.73;;
23163;SDS011;31429;42.674;23.350;2023-09-30T05:39:20;14.67;;;10.00;;
23163;SDS011;31429;42.674;23.350;2023-09-30T05:40:21;17.80;;;11.30;;
23163;SDS011;31429;42.674;23.350;2023-09-30T05:41:22;18.40;;;10.27;;
23163;SDS011;31429;42.674;23.350;2023-09-30T05:42:22;20.17;;;10.83;;
23163;SDS011;31429;42.674;23.350;2023-09-30T05:43:23;20.90;;;10.70;;
23163;SDS011;31429;42.674;23.350;2023-09-30T05:44:23;18.50;;;11.13;;
23163;SDS011;31429;42.674;23.350;2023-09-30T05:45:27;17.30;;;10.60;;
23163;SDS011;31429;42.674;23.350;2023-09-30T05:47:11;18.83;;;10.50;;
23163;SDS011;31429;42.674;23.350;2023-09-30T05:48:12;20.17;;;10.07;;
23163;SDS011;31429;42.674;23.350;2023-09-30T05:49:14;15.90;;;10.33;;
23163;SDS011;31429;42.674;23.350;2023-09-30T05:50:14;19.77;;;11.00;;
23163;SDS011;31429;42.674;23.350;2023-09-30T05:51:35;17.50;;;10.37;;
23163;SDS011;31429;42.674;23.350;2023-09-30T05:52:36;15.97;;;10.53;;
23163;SDS011;31429;42.674;23.350;2023-09-30T05:53:56;17.77;;;9.83;;
23163;SDS011;31429;42.674;23.350;2023-09-30T05:54:57;18.63;;;10.17;;
23163;SDS011;31429;42.674;23.350;2023-09-30T05:55:57;17.10;;;10.67;;
23163;SDS011;31429;42.674;23.350;2023-09-30T05:57:19;19.13;;;10.70;;
23163;SDS011;31429;42.674;23.350;2023-09-30T05:58:19;17.50;;;10.07;;
23163;SDS011;31429;42.674;23.350;2023-09-30T05:59:20;18.97;;;11.23;;
23163;SDS011;31429;42.674;23.350;2023-09-30T06:00:21;15.50;;;10.37;;
23163;SDS011;31429;42.674;23.350;2023-09-30T06:01:42;21.67;;;11.23;;
23163;SDS011;31429;42.674;23.350;2023-09-30T06:02:43;18.67;;;11.50;;
23163;SDS011;31429;42.674;23.350;2023-09-30T06:03:45;23.77;;;11.30;;
23163;SDS011;31429;42.674;23.350;2023-09-30T06:05:07;16.20;;;10.67;;
23163;SDS011;31429;42.674;23.350;2023-09-30T06:06:11;14.07;;;10.83;;
23163;SDS011;31429;42.674;23.350;2023-09-30T06:07:12;16.40;;;10.83;;
23163;SDS011;31429;42.674;23.350;2023-09-30T06:08:13;16.40;;;10.67;;
23163;SDS011;31429;42.674;23.350;2023-09-30T06:09:14;13.50;;;9.90;;
23163;SDS011;31429;42.674;23.350;2023-09-30T06:10:15;21.43;;;10.87;;
23163;SDS011;31429;42.674;23.350;2023-09-30T06:11:36;17.53;;;10.80;;
23163;SDS011;31429;42.674;23.350;2023-09-30T06:12:36;19.67;;;10.57;;
23163;SDS011;31429;42.674;23.350;2023-09-30T06:13:38;15.40;;;10.93;;
23163;SDS011;31429;42.674;23.350;2023-09-30T06:14:38;20.23;;;10.27;;
23163;SDS011;31429;42.674;23.350;2023-09-30T06:15:41;16.13;;;11.20;;
23163;SDS011;31429;42.674;23.350;2023-09-30T06:17:02;14.80;;;11.13;;
23163;SDS011;31429;42.674;23.350;2023-09-30T06:18:02;18.27;;;10.60;;
23163;SDS011;31429;42.674;23.350;2023-09-30T06:19:04;15.83;;;11.03;;
23163;SDS011;31429;42.674;23.350;2023-09-30T06:20:26;18.93;;;12.53;;
23163;SDS011;31429;42.674;23.350;2023-09-30T06:21:29;15.03;;;11.43;;
23163;SDS011;31429;42.674;23.350;2023-09-30T06:22:29;17.83;;;10.80;;
23163;SDS011;31429;42.674;23.350;2023-09-30T06:23:30;20.47;;;10.73;;
23163;SDS011;31429;42.674;23.350;2023-09-30T06:24:30;19.90;;;10.20;;
23163;SDS011;31429;42.674;23.350;2023-09-30T06:25:31;23.27;;;10.13;;
23163;SDS011;31429;42.674;23.350;2023-09-30T06:26:52;26.80;;;10.80;;
23163;SDS011;31429;42.674;23.350;2023-09-30T06:27:52;28.03;;;10.27;;
23163;SDS011;31429;42.674;23.350;2023-09-30T06:28:56;21.87;;;10.33;;
23163;SDS011;31429;42.674;23.350;2023-09-30T06:29:57;17.67;;;10.43;;
23163;SDS011;31429;42.674;23.350;2023-09-30T06:30:58;18.30;;;11.17;;
23163;SDS011;31429;42.674;23.350;2023-09-30T06:31:58;14.70;;;10.40;;
23163;SDS011;31429;42.674;23.350;2023-09-30T06:32:59;20.50;;;10.03;;
23163;SDS011;31429;42.674;23.350;2023-09-30T06:34:21;18.30;;;10.07;;
23163;SDS011;31429;42.674;23.350;2023-09-30T06:35:21;29.37;;;10.77;;
23163;SDS011;31429;42.674;23.350;2023-09-30T06:36:43;11.63;;;10.00;;
23163;SDS011;31429;42.674;23.350;2023-09-30T06:37:44;19.83;;;11.33;;
23163;SDS011;31429;42.674;23.350;2023-09-30T06:38:45;17.47;;;10.60;;
23163;SDS011;31429;42.674;23.350;2023-09-30T06:40:06;17.80;;;10.07;;
23163;SDS011;31429;42.674;23.350;2023-09-30T06:41:28;26.60;;;10.07;;
23163;SDS011;31429;42.674;23.350;2023-09-30T06:42:30;14.17;;;9.67;;
23163;SDS011;31429;42.674;23.350;2023-09-30T06:43:31;16.97;;;10.00;;
23163;SDS011;31429;42.674;23.350;2023-09-30T06:44:33;16.40;;;9.07;;
23163;SDS011;31429;42.674;23.350;2023-09-30T06:45:33;20.60;;;9.93;;
23163;SDS011;31429;42.674;23.350;2023-09-30T06:46:34;19.00;;;9.83;;
23163;SDS011;31429;42.674;23.350;2023-09-30T06:47:35;18.37;;;9.83;;
23163;SDS011;31429;42.674;23.350;2023-09-30T06:48:37;14.97;;;9.83;;
23163;SDS011;31429;42.674;23.350;2023-09-30T06:49:57;21.97;;;9.97;;
23163;SDS011;31429;42.674;23.350;2023-09-30T06:51:18;22.53;;;9.93;;
23163;SDS011;31429;42.674;23.350;2023-09-30T06:52:20;20.00;;;9.53;;
23163;SDS011;31429;42.674;23.350;2023-09-30T06:53:20;19.27;;;9.73;;
23163;SDS011;31429;42.674;23.350;2023-09-30T06:54:24;21.57;;;10.37;;
23163;SDS011;31429;42.674;23.350;2023-09-30T06:55:24;29.50;;;9.83;;
23163;SDS011;31429;42.674;23.350;2023-09-30T06:56:45;28.27;;;9.70;;
23163;SDS011;31429;42.674;23.350;2023-09-30T06:57:45;21.40;;;9.63;;
23163;SDS011;31429;42.674;23.350;2023-09-30T08:26:12;15.93;;;7.13;;
23163;SDS011;31429;42.674;23.350;2023-09-30T08:27:14;12.27;;;7.07;;
23163;SDS011;31429;42.674;23.350;2023-09-30T08:35:15;16.63;;;7.80;;
23163;SDS011;31429;42.674;23.350;2023-09-30T08:36:16;12.57;;;7.27;;
23163;SDS011;31429;42.674;23.350;2023-09-30T08:37:17;13.23;;;7.30;;
23163;SDS011;31429;42.674;23.350;2023-09-30T08:38:17;15.70;;;7.47;;
23163;SDS011;31429;42.674;23.350;2023-09-30T08:39:18;12.13;;;7.77;;
23163;SDS011;31429;42.674;23.350;2023-09-30T08:40:19;13.77;;;7.33;;
23163;SDS011;31429;42.674;23.350;2023-09-30T08:41:31;11.10;;;7.50;;
23163;SDS011;31429;42.674;23.350;2023-09-30T08:42:33;17.60;;;7.93;;
23163;SDS011;31429;42.674;23.350;2023-09-30T08:43:35;13.20;;;8.00;;
23163;SDS011;31429;42.674;23.350;2023-09-30T08:44:55;17.30;;;8.77;;
23163;SDS011;31429;42.674;23.350;2023-09-30T08:45:56;12.90;;;8.00;;
23163;SDS011;31429;42.674;23.350;2023-09-30T08:46:58;15.30;;;8.00;;
23163;SDS011;31429;42.674;23.350;2023-09-30T08:47:58;12.23;;;7.43;;
23163;SDS011;31429;42.674;23.350;2023-09-30T08:49:05;20.13;;;8.30;;
23163;SDS011;31429;42.674;23.350;2023-09-30T08:50:08;17.07;;;8.20;;
23163;SDS011;31429;42.674;23.350;2023-09-30T08:51:10;15.17;;;8.57;;
23163;SDS011;31429;42.674;23.350;2023-09-30T08:52:11;15.50;;;9.03;;
23163;SDS011;31429;42.674;23.350;2023-09-30T08:53:32;17.83;;;8.90;;
23163;SDS011;31429;42.674;23.350;2023-09-30T08:54:35;17.00;;;8.43;;
23163;SDS011;31429;42.674;23.350;2023-09-30T08:55:35;14.43;;;8.73;;
23163;SDS011;31429;42.674;23.350;2023-09-30T08:56:39;11.10;;;8.93;;
23163;SDS011;31429;42.674;23.350;2023-09-30T08:57:45;16.93;;;9.17;;
23163;SDS011;31429;42.674;23.350;2023-09-30T08:58:48;15.83;;;9.70;;
23163;SDS011;31429;42.674;23.350;2023-09-30T08:59:49;18.20;;;9.02;;
23163;SDS011;31429;42.674;23.350;2023-09-30T09:00:50;14.97;;;8.67;;
23163;SDS011;31429;42.674;23.350;2023-09-30T09:01:51;14.10;;;8.23;;
23163;SDS011;31429;42.674;23.350;2023-09-30T09:02:52;15.57;;;8.90;;
23163;SDS011;31429;42.674;23.350;2023-09-30T09:03:52;12.38;;;9.05;;
23163;SDS011;31429;42.674;23.350;2023-09-30T09:04:53;15.93;;;9.52;;
23163;SDS011;31429;42.674;23.350;2023-09-30T09:05:54;15.85;;;10.23;;
23163;SDS011;31429;42.674;23.350;2023-09-30T09:07:14;15.68;;;10.07;;
23163;SDS011;31429;42.674;23.350;2023-09-30T09:08:15;16.42;;;9.90;;
23163;SDS011;31429;42.674;23.350;2023-09-30T09:09:36;13.63;;;9.77;;
23163;SDS011;31429;42.674;23.350;2023-09-30T09:10:42;22.05;;;10.15;;
23163;SDS011;31429;42.674;23.350;2023-09-30T09:11:55;21.55;;;9.85;;
23163;SDS011;31429;42.674;23.350;2023-09-30T09:12:58;22.50;;;10.60;;
23163;SDS011;31429;42.674;23.350;2023-09-30T09:13:59;18.35;;;10.40;;
23163;SDS011;31429;42.674;23.350;2023-09-30T09:15:01;21.90;;;11.88;;
23163;SDS011;31429;42.674;23.350;2023-09-30T09:16:05;25.30;;;10.00;;
23163;SDS011;31429;42.674;23.350;2023-09-30T09:17:08;20.40;;;10.82;;
23163;SDS011;31429;42.674;23.350;2023-09-30T09:18:10;17.40;;;9.82;;
23163;SDS011;31429;42.674;23.350;2023-09-30T09:19:13;20.85;;;9.55;;
23163;SDS011;31429;42.674;23.350;2023-09-30T09:20:16;12.88;;;10.45;;
23163;SDS011;31429;42.674;23.350;2023-09-30T09:21:20;19.55;;;11.05;;
23163;SDS011;31429;42.674;23.350;2023-09-30T09:22:37;19.08;;;9.63;;
23163;SDS011;31429;42.674;23.350;2023-09-30T09:23:38;19.73;;;10.98;;
23163;SDS011;31429;42.674;23.350;2023-09-30T09:24:40;14.93;;;8.93;;
23163;SDS011;31429;42.674;23.350;2023-09-30T09:26:04;16.05;;;10.02;;
23163;SDS011;31429;42.674;23.350;2023-09-30T09:27:08;17.40;;;9.65;;
23163;SDS011;31429;42.674;23.350;2023-09-30T09:28:10;17.40;;;9.15;;
23163;SDS011;31429;42.674;23.350;2023-09-30T09:29:30;17.02;;;9.32;;
23163;SDS011;31429;42.674;23.350;2023-09-30T09:30:31;15.18;;;9.20;;
23163;SDS011;31429;42.674;23.350;2023-09-30T09:31:32;14.45;;;9.02;;
23163;SDS011;31429;42.674;23.350;2023-09-30T09:32:35;17.88;;;9.20;;
23163;SDS011;31429;42.674;23.350;2023-09-30T09:33:35;11.90;;;8.93;;
23163;SDS011;31429;42.674;23.350;2023-09-30T09:34:37;10.70;;;8.20;;
23163;SDS011;31429;42.674;23.350;2023-09-30T09:35:38;10.73;;;8.95;;
23163;SDS011;31429;42.674;23.350;2023-09-30T09:36:39;15.57;;;8.55;;
23163;SDS011;31429;42.674;23.350;2023-09-30T09:38:00;15.50;;;8.65;;
23163;SDS011;31429;42.674;23.350;2023-09-30T09:39:01;14.18;;;8.65;;
23163;SDS011;31429;42.674;23.350;2023-09-30T09:40:03;17.67;;;9.00;;
23163;SDS011;31429;42.674;23.350;2023-09-30T09:41:04;20.25;;;8.93;;
23163;SDS011;31429;42.674;23.350;2023-09-30T09:42:08;15.68;;;8.43;;
23163;SDS011;31429;42.674;23.350;2023-09-30T09:43:10;13.60;;;8.60;;
23163;SDS011;31429;42.674;23.350;2023-09-30T09:44:11;14.25;;;9.07;;
23163;SDS011;31429;42.674;23.350;2023-09-30T09:45:12;17.25;;;8.82;;
23163;SDS011;31429;42.674;23.350;2023-09-30T09:46:13;18.63;;;9.15;;
23163;SDS011;31429;42.674;23.350;2023-09-30T09:47:14;17.75;;;9.20;;
23163;SDS011;31429;42.674;23.350;2023-09-30T09:48:15;17.58;;;9.48;;
23163;SDS011;31429;42.674;23.350;2023-09-30T09:49:17;13.75;;;9.23;;
23163;SDS011;31429;42.674;23.350;2023-09-30T09:50:18;13.85;;;9.30;;
23163;SDS011;31429;42.674;23.350;2023-09-30T09:51:20;16.30;;;8.10;;
23163;SDS011;31429;42.674;23.350;2023-09-30T09:52:22;10.65;;;7.60;;
23163;SDS011;31429;42.674;23.350;2023-09-30T09:53:24;18.48;;;7.93;;
23163;SDS011;31429;42.674;23.350;2023-09-30T09:54:26;17.42;;;7.88;;
23163;SDS011;31429;42.674;23.350;2023-09-30T09:55:29;16.52;;;7.72;;
23163;SDS011;31429;42.674;23.350;2023-09-30T09:56:30;9.13;;;7.13;;
23163;SDS011;31429;42.674;23.350;2023-09-30T09:57:35;12.93;;;7.05;;
23163;SDS011;31429;42.674;23.350;2023-09-30T09:58:36;18.65;;;7.55;;
23163;SDS011;31429;42.674;23.350;2023-09-30T09:59:41;12.75;;;7.18;;
23163;SDS011;31429;42.674;23.350;2023-09-30T10:00:45;17.20;;;7.40;;
23163;SDS011;31429;42.674;23.350;2023-09-30T10:01:46;9.75;;;6.90;;
23163;SDS011;31429;42.674;23.350;2023-09-30T10:02:49;13.00;;;6.50;;
23163;SDS011;31429;42.674;23.350;2023-09-30T10:03:50;15.10;;;7.90;;
23163;SDS011;31429;42.674;23.350;2023-09-30T10:04:51;14.35;;;7.28;;
23163;SDS011;31429;42.674;23.350;2023-09-30T10:05:52;9.70;;;6.63;;
23163;SDS011;31429;42.674;23.350;2023-09-30T10:06:53;11.30;;;7.05;;
23163;SDS011;31429;42.674;23.350;2023-09-30T10:07:57;11.77;;;7.00;;
23163;SDS011;31429;42.674;23.350;2023-09-30T10:09:01;21.42;;;7.00;;
23163;SDS011;31429;42.674;23.350;2023-09-30T10:10:05;13.50;;;6.07;;
23163;SDS011;31429;42.674;23.350;2023-09-30T10:11:16;23.92;;;6.90;;
23163;SDS011;31429;42.674;23.350;2023-09-30T10:12:18;12.50;;;6.15;;
23163;SDS011;31429;42.674;23.350;2023-09-30T10:16:50;19.42;;;7.00;;
23163;SDS011;31429;42.674;23.350;2023-09-30T10:17:57;11.07;;;6.57;;
23163;SDS011;31429;42.674;23.350;2023-09-30T10:19:07;12.57;;;6.50;;
23163;SDS011;31429;42.674;23.350;2023-09-30T10:20:48;15.02;;;6.15;;